createdAt,value
2023-03-12T00:00:09.004Z,101087.00
2023-03-12T00:02:36.298Z,101090.50
2023-03-12T00:05:04.262Z,101082.72
2023-03-12T00:07:31.401Z,101081.00
2023-03-12T00:09:58.389Z,101074.09
2023-03-12T00:12:25.490Z,101074.09
2023-03-12T00:14:52.485Z,101074.16
2023-03-12T00:17:19.469Z,101068.06
2023-03-12T00:19:46.419Z,101081.09
2023-03-12T00:22:14.162Z,101069.81
2023-03-12T00:24:41.140Z,101071.56
2023-03-12T00:27:08.181Z,101070.72
2023-03-12T00:29:36.173Z,101068.09
2023-03-12T00:32:03.204Z,101059.44
2023-03-12T00:34:30.187Z,101055.13
2023-03-12T00:36:57.190Z,101053.41
2023-03-12T00:39:24.233Z,101050.81
2023-03-12T00:41:51.273Z,101043.00
2023-03-12T00:44:19.937Z,101045.66
2023-03-12T00:46:46.916Z,101044.75
2023-03-12T00:49:14.268Z,101044.78
2023-03-12T00:51:41.471Z,101037.00
2023-03-12T00:54:08.485Z,101031.81
2023-03-12T00:56:35.651Z,101025.72
2023-03-12T00:59:02.843Z,101024.81
2023-03-12T01:01:29.847Z,101029.16
2023-03-12T01:03:59.877Z,101025.66
2023-03-12T01:06:27.247Z,101029.97
2023-03-12T01:08:58.911Z,101026.47
2023-03-12T01:11:25.917Z,101022.13
2023-03-12T01:13:52.887Z,101020.38
2023-03-12T01:16:19.997Z,101012.59
2023-03-12T01:18:46.954Z,101020.44
2023-03-12T01:21:14.013Z,101025.63
2023-03-12T01:23:40.933Z,101014.34
2023-03-12T01:26:07.868Z,101016.09
2023-03-12T01:28:34.862Z,101019.56
2023-03-12T01:31:16.079Z,101022.22
2023-03-12T01:33:43.107Z,101017.88
2023-03-12T01:36:21.216Z,101005.78
2023-03-12T01:38:52.423Z,100996.25
2023-03-12T01:41:21.676Z,100990.22
2023-03-12T01:43:49.194Z,100987.63
2023-03-12T01:46:19.148Z,100985.00
2023-03-12T01:48:54.699Z,100988.47
2023-03-12T01:51:28.414Z,101000.66
2023-03-12T01:54:02.207Z,100979.84
2023-03-12T01:56:36.653Z,100966.00
2023-03-12T01:59:15.705Z,100981.59
2023-03-12T02:01:44.394Z,100979.00
2023-03-12T02:04:14.681Z,100968.59
2023-03-12T02:07:05.240Z,100959.09
2023-03-12T02:09:36.498Z,100954.75
2023-03-12T02:12:03.629Z,100955.59
2023-03-12T02:14:31.195Z,100959.94
2023-03-12T02:16:58.598Z,100956.50
2023-03-12T02:20:01.354Z,100958.25
2023-03-12T02:22:29.953Z,100952.19
2023-03-12T02:25:28.329Z,100954.81
2023-03-12T02:27:58.493Z,100949.63
2023-03-12T02:30:28.823Z,100946.16
2023-03-12T02:32:58.399Z,100938.38
2023-03-12T02:35:25.693Z,100942.72
2023-03-12T02:37:56.017Z,100942.72
2023-03-12T02:40:39.013Z,100939.25
2023-03-12T02:43:10.177Z,100937.50
2023-03-12T02:45:39.249Z,100927.06
2023-03-12T02:48:09.648Z,100927.97
2023-03-12T02:50:36.678Z,100925.38
2023-03-12T02:53:04.511Z,100934.03
2023-03-12T02:55:32.023Z,100922.72
2023-03-12T02:57:59.080Z,100920.13
2023-03-12T03:00:26.321Z,100910.63
2023-03-12T03:02:54.471Z,100901.06
2023-03-12T03:05:24.195Z,100903.69
2023-03-12T03:07:51.254Z,100903.69
2023-03-12T03:10:18.518Z,100901.06
2023-03-12T03:12:45.517Z,100910.63
2023-03-12T03:15:13.121Z,100902.81
2023-03-12T03:17:40.605Z,100905.41
2023-03-12T03:20:11.375Z,100908.03
2023-03-12T03:22:39.346Z,100908.91
2023-03-12T03:25:09.899Z,100902.84
2023-03-12T03:27:37.169Z,100899.38
2023-03-12T03:30:05.845Z,100900.28
2023-03-12T03:32:36.250Z,100908.06
2023-03-12T03:35:03.593Z,100902.03
2023-03-12T03:37:30.822Z,100906.38
2023-03-12T03:39:58.012Z,100915.06
2023-03-12T03:42:25.520Z,100911.59
2023-03-12T03:44:52.577Z,100907.28
2023-03-12T03:47:19.804Z,100902.97
2023-03-12T03:49:46.957Z,100910.75
2023-03-12T03:52:14.043Z,100902.09
2023-03-12T03:54:41.052Z,100906.47
2023-03-12T03:57:08.515Z,100887.38
2023-03-12T03:59:35.969Z,100895.19
2023-03-12T04:02:03.238Z,100888.25
2023-03-12T04:04:33.808Z,100878.72
2023-03-12T04:07:00.746Z,100873.50
2023-03-12T04:09:27.747Z,100872.66
2023-03-12T04:11:54.722Z,100861.38
2023-03-12T04:14:21.841Z,100859.66
2023-03-12T04:16:48.759Z,100856.19
2023-03-12T04:19:15.800Z,100845.81
2023-03-12T04:21:43.080Z,100857.06
2023-03-12T04:24:16.886Z,100858.81
2023-03-12T04:26:44.665Z,100843.19
2023-03-12T04:29:12.193Z,100837.13
2023-03-12T04:31:40.503Z,100842.34
2023-03-12T04:34:07.561Z,100836.28
2023-03-12T04:36:34.587Z,100836.28
2023-03-12T04:39:07.207Z,100827.59
2023-03-12T04:41:35.942Z,100831.97
2023-03-12T04:44:14.076Z,100818.97
2023-03-12T04:46:43.404Z,100814.63
2023-03-12T04:49:13.736Z,100810.28
2023-03-12T04:51:42.209Z,100798.13
2023-03-12T04:54:09.411Z,100794.63
2023-03-12T04:56:38.059Z,100794.63
2023-03-12T04:59:05.629Z,100792.00
2023-03-12T05:01:36.418Z,100790.28
2023-03-12T05:04:08.374Z,100789.38
2023-03-12T05:06:35.854Z,100796.31
2023-03-12T05:09:03.900Z,100796.31
2023-03-12T05:11:31.400Z,100800.66
2023-03-12T05:13:58.501Z,100795.47
2023-03-12T05:16:26.001Z,100785.06
2023-03-12T05:18:53.274Z,100773.81
2023-03-12T05:21:22.331Z,100759.06
2023-03-12T05:23:52.866Z,100765.13
2023-03-12T05:26:25.850Z,100759.94
2023-03-12T05:28:59.115Z,100754.75
2023-03-12T05:31:27.291Z,100753.88
2023-03-12T05:33:54.784Z,100738.25
2023-03-12T05:36:22.952Z,100730.47
2023-03-12T05:38:50.138Z,100739.13
2023-03-12T05:41:26.642Z,100732.22
2023-03-12T05:43:57.805Z,100737.41
2023-03-12T05:46:26.957Z,100726.16
2023-03-12T05:48:54.810Z,100727.88
2023-03-12T05:51:22.493Z,100725.31
2023-03-12T05:53:50.252Z,100737.41
2023-03-12T05:56:18.443Z,100745.25
2023-03-12T05:58:49.788Z,100747.00
2023-03-12T06:01:27.256Z,100743.53
2023-03-12T06:03:56.788Z,100740.06
2023-03-12T06:06:25.767Z,100726.16
2023-03-12T06:08:53.593Z,100725.31
2023-03-12T06:11:20.583Z,100724.44
2023-03-12T06:13:48.313Z,100734.00
2023-03-12T06:16:26.381Z,100733.13
2023-03-12T06:19:03.595Z,100723.59
2023-03-12T06:21:34.553Z,100734.00
2023-03-12T06:24:02.902Z,100736.59
2023-03-12T06:26:37.128Z,100734.88
2023-03-12T06:29:04.172Z,100727.91
2023-03-12T06:31:31.304Z,100733.13
2023-03-12T06:33:58.458Z,100726.19
2023-03-12T06:36:25.627Z,100721.00
2023-03-12T06:38:53.030Z,100726.22
2023-03-12T06:41:21.332Z,100733.13
2023-03-12T06:43:48.617Z,100728.81
2023-03-12T06:46:21.959Z,100717.53
2023-03-12T06:48:49.076Z,100720.13
2023-03-12T06:51:17.361Z,100722.72
2023-03-12T06:53:46.187Z,100716.66
2023-03-12T06:56:14.214Z,100716.66
2023-03-12T06:58:42.028Z,100716.69
2023-03-12T07:01:09.684Z,100709.72
2023-03-12T07:03:36.745Z,100706.25
2023-03-12T07:06:04.472Z,100700.16
2023-03-12T07:08:31.474Z,100703.66
2023-03-12T07:11:01.620Z,100712.31
2023-03-12T07:13:30.312Z,100715.78
2023-03-12T07:15:57.651Z,100706.25
2023-03-12T07:18:24.696Z,100700.16
2023-03-12T07:20:52.907Z,100701.00
2023-03-12T07:23:20.815Z,100700.16
2023-03-12T07:25:48.100Z,100697.50
2023-03-12T07:28:17.260Z,100695.78
2023-03-12T07:30:53.019Z,100685.28
2023-03-12T07:33:21.957Z,100687.81
2023-03-12T07:35:51.696Z,100690.34
2023-03-12T07:38:19.808Z,100690.25
2023-03-12T07:40:58.718Z,100696.22
2023-03-12T07:43:26.295Z,100687.50
2023-03-12T07:45:55.343Z,100686.56
2023-03-12T07:48:22.605Z,100684.84
2023-03-12T07:50:49.701Z,100681.34
2023-03-12T07:53:17.389Z,100678.72
2023-03-12T07:55:46.719Z,100677.03
2023-03-12T07:58:16.001Z,100676.16
2023-03-12T08:00:43.648Z,100675.28
2023-03-12T08:03:11.131Z,100672.66
2023-03-12T08:05:38.362Z,100678.72
2023-03-12T08:08:05.767Z,100676.13
2023-03-12T08:10:32.995Z,100680.50
2023-03-12T08:13:00.180Z,100684.00
2023-03-12T08:15:27.154Z,100670.97
2023-03-12T08:17:54.204Z,100674.44
2023-03-12T08:20:21.565Z,100675.31
2023-03-12T08:22:48.639Z,100670.97
2023-03-12T08:25:16.095Z,100677.94
2023-03-12T08:27:43.133Z,100681.47
2023-03-12T08:30:11.201Z,100684.13
2023-03-12T08:32:38.487Z,100676.34
2023-03-12T08:35:06.137Z,100679.88
2023-03-12T08:37:33.290Z,100673.81
2023-03-12T08:40:00.479Z,100676.44
2023-03-12T08:42:27.823Z,100680.78
2023-03-12T08:44:54.810Z,100669.47
2023-03-12T08:47:21.866Z,100665.13
2023-03-12T08:49:48.803Z,100667.72
2023-03-12T08:52:15.831Z,100669.47
2023-03-12T08:54:42.966Z,100676.41
2023-03-12T08:57:10.622Z,100681.63
2023-03-12T08:59:37.669Z,100686.81
2023-03-12T09:02:05.210Z,100678.94
2023-03-12T09:04:32.507Z,100684.16
2023-03-12T09:07:01.569Z,100684.94
2023-03-12T09:09:28.678Z,100684.91
2023-03-12T09:11:56.145Z,100686.66
2023-03-12T09:17:10.709Z,100685.72
2023-03-12T09:19:37.742Z,100690.00
2023-03-12T09:22:04.810Z,100689.06
2023-03-12T09:24:31.929Z,100686.41
2023-03-12T09:26:59.122Z,100690.69
2023-03-12T09:29:26.385Z,100688.03
2023-03-12T09:31:53.744Z,100688.81
2023-03-12T09:34:20.777Z,100688.75
2023-03-12T09:36:47.765Z,100689.50
2023-03-12T09:39:14.806Z,100693.78
2023-03-12T09:41:47.733Z,100681.50
2023-03-12T09:44:26.369Z,100679.72
2023-03-12T09:47:02.737Z,100681.34
2023-03-12T09:49:42.873Z,100684.72
2023-03-12T09:52:44.591Z,100679.34
2023-03-12T09:55:17.066Z,100687.13
2023-03-12T09:57:46.046Z,100686.13
2023-03-12T10:00:20.711Z,100695.59
2023-03-12T10:03:12.359Z,100700.78
2023-03-12T10:06:14.693Z,100693.66
2023-03-12T10:09:29.293Z,100692.75
2023-03-12T10:12:23.160Z,100705.72
2023-03-12T10:15:32.292Z,100706.38
2023-03-12T10:18:24.814Z,100705.19
2023-03-12T10:21:08.959Z,100693.53
2023-03-12T10:23:58.605Z,100706.16
2023-03-12T10:26:37.926Z,100706.69
2023-03-12T10:29:24.700Z,100695.97
2023-03-12T10:32:04.318Z,100702.75
2023-03-12T10:34:42.821Z,100690.31
2023-03-12T10:37:22.608Z,100697.09
2023-03-12T10:39:51.531Z,100700.38
2023-03-12T10:42:25.655Z,100686.19
2023-03-12T10:44:58.646Z,100687.75
2023-03-12T10:47:31.550Z,100685.75
2023-03-12T10:50:20.994Z,100694.25
2023-03-12T10:52:52.015Z,100682.50
2023-03-12T10:55:30.388Z,100683.13
2023-03-12T10:57:57.833Z,100676.78
2023-03-12T11:00:32.255Z,100678.25
2023-03-12T11:03:05.496Z,100673.66
2023-03-12T11:05:37.120Z,100666.41
2023-03-12T11:08:19.194Z,100668.91
2023-03-12T11:10:47.640Z,100673.97
2023-03-12T11:13:39.875Z,100683.34
2023-03-12T11:16:16.013Z,100675.38
2023-03-12T11:19:02.045Z,100669.13
2023-03-12T11:21:32.376Z,100677.72
2023-03-12T11:23:59.320Z,100674.00
2023-03-12T11:26:36.844Z,100684.34
2023-03-12T11:29:48.679Z,100673.53
2023-03-12T11:32:29.445Z,100676.88
2023-03-12T11:34:56.997Z,100680.41
2023-03-12T11:37:55.823Z,100681.38
2023-03-12T11:41:10.505Z,100685.66
2023-03-12T11:43:53.983Z,100686.72
2023-03-12T11:46:53.007Z,100694.59
2023-03-12T11:49:39.191Z,100694.09
2023-03-12T11:52:45.603Z,100696.31
2023-03-12T11:55:43.512Z,100693.28
2023-03-12T11:58:44.991Z,100697.41
2023-03-12T12:01:55.458Z,100703.19
2023-03-12T12:04:52.067Z,100693.25
2023-03-12T12:07:54.413Z,100692.84
2023-03-12T12:10:51.792Z,100689.25
2023-03-12T12:14:04.086Z,100683.81
2023-03-12T12:17:27.858Z,100688.66
2023-03-12T12:20:15.853Z,100668.31
2023-03-12T12:23:19.737Z,100666.38
2023-03-12T12:26:18.154Z,100652.06
2023-03-12T12:29:25.663Z,100639.22
2023-03-12T12:31:58.728Z,100648.00
2023-03-12T12:34:58.042Z,100631.72
2023-03-12T12:38:16.653Z,100634.75
2023-03-12T12:40:54.691Z,100634.53
2023-03-12T12:43:38.400Z,100636.44
2023-03-12T12:46:14.546Z,100650.06
2023-03-12T12:48:56.974Z,100639.13
2023-03-12T12:51:32.155Z,100638.94
2023-03-12T12:54:31.034Z,100626.22
2023-03-12T12:57:10.113Z,100633.84
2023-03-12T13:00:14.683Z,100629.34
2023-03-12T13:02:46.769Z,100627.56
2023-03-12T13:05:26.440Z,100623.47
2023-03-12T13:07:53.678Z,100624.03
2023-03-12T13:10:33.006Z,100616.97
2023-03-12T13:13:22.487Z,100618.63
2023-03-12T13:15:49.981Z,100613.16
2023-03-12T13:18:29.206Z,100601.31
2023-03-12T13:21:56.427Z,100605.13
2023-03-12T13:24:36.982Z,100592.44
2023-03-12T13:27:30.333Z,100580.44
2023-03-12T13:29:57.951Z,100581.66
2023-03-12T13:32:59.077Z,100582.78
2023-03-12T13:35:29.651Z,100572.47
2023-03-12T13:38:03.817Z,100570.78
2023-03-12T13:40:38.679Z,100585.00
2023-03-12T13:43:30.197Z,100590.50
2023-03-12T13:46:06.967Z,100589.75
2023-03-12T13:48:44.191Z,100589.84
2023-03-12T13:51:24.905Z,100590.91
2023-03-12T13:54:04.609Z,100591.91
2023-03-12T13:56:33.755Z,100595.44
2023-03-12T13:59:17.904Z,100588.19
2023-03-12T14:01:53.834Z,100590.53
2023-03-12T14:04:30.570Z,100593.13
2023-03-12T14:07:31.761Z,100599.22
2023-03-12T14:10:42.240Z,100606.22
2023-03-12T14:13:15.168Z,100609.38
2023-03-12T14:16:19.755Z,100610.53
2023-03-12T14:18:49.185Z,100617.31
2023-03-12T14:21:18.661Z,100621.81
2023-03-12T14:24:08.507Z,100612.53
2023-03-12T14:26:37.148Z,100622.72
2023-03-12T14:29:21.139Z,100610.25
2023-03-12T14:31:49.883Z,100617.38
2023-03-12T14:34:29.128Z,100611.53
2023-03-12T14:37:32.021Z,100620.53
2023-03-12T14:40:07.222Z,100620.63
2023-03-12T14:42:36.345Z,100623.28
2023-03-12T14:45:06.257Z,100636.41
2023-03-12T14:47:44.217Z,100643.06
2023-03-12T14:50:22.864Z,100634.66
2023-03-12T14:52:50.399Z,100641.25
2023-03-12T14:55:23.998Z,100628.47
2023-03-12T14:58:14.506Z,100625.38
2023-03-12T15:00:45.877Z,100625.19
2023-03-12T15:03:17.504Z,100629.63
2023-03-12T15:05:49.923Z,100629.09
2023-03-12T15:08:18.582Z,100631.50
2023-03-12T15:10:55.893Z,100636.34
2023-03-12T15:13:26.244Z,100640.50
2023-03-12T15:15:56.014Z,100640.56
2023-03-12T15:18:29.086Z,100637.31
2023-03-12T15:20:59.046Z,100638.63
2023-03-12T15:23:32.066Z,100632.00
2023-03-12T15:26:29.629Z,100641.16
2023-03-12T15:29:01.468Z,100631.03
2023-03-12T15:31:45.591Z,100638.44
2023-03-12T15:34:36.252Z,100636.09
2023-03-12T15:37:41.179Z,100635.28
2023-03-12T15:40:25.037Z,100638.84
2023-03-12T15:42:57.425Z,100633.56
2023-03-12T15:45:42.499Z,100629.75
2023-03-12T15:48:39.652Z,100626.97
2023-03-12T15:51:25.823Z,100632.13
2023-03-12T15:54:27.489Z,100629.38
2023-03-12T15:56:55.496Z,100633.94
2023-03-12T15:59:28.517Z,100636.69
2023-03-12T16:01:57.167Z,100633.31
2023-03-12T16:04:24.711Z,100630.06
2023-03-12T16:06:53.396Z,100633.94
2023-03-12T16:09:27.156Z,100630.66
2023-03-12T16:11:56.633Z,100626.53
2023-03-12T16:14:34.572Z,100628.47
2023-03-12T16:17:01.689Z,100626.19
2023-03-12T16:19:33.679Z,100638.75
2023-03-12T16:22:00.681Z,100630.19
2023-03-12T16:24:27.653Z,100633.97
2023-03-12T16:26:58.640Z,100622.53
2023-03-12T16:29:35.678Z,100621.72
2023-03-12T16:32:11.919Z,100617.50
2023-03-12T16:34:39.020Z,100613.22
2023-03-12T16:37:10.007Z,100621.31
2023-03-12T16:39:37.054Z,100618.84
2023-03-12T16:42:16.354Z,100619.81
2023-03-12T16:44:46.334Z,100619.09
2023-03-12T16:47:14.627Z,100612.22
2023-03-12T16:49:44.865Z,100619.34
2023-03-12T16:52:28.377Z,100615.88
2023-03-12T16:54:55.396Z,100611.69
2023-03-12T16:57:33.278Z,100611.75
2023-03-12T17:00:03.147Z,100618.03
2023-03-12T17:02:30.234Z,100619.09
2023-03-12T17:04:57.664Z,100622.78
2023-03-12T17:07:24.688Z,100618.44
2023-03-12T17:09:51.613Z,100616.78
2023-03-12T17:12:38.586Z,100626.53
2023-03-12T17:15:14.012Z,100621.41
2023-03-12T17:17:41.569Z,100632.94
2023-03-12T17:20:13.475Z,100632.16
2023-03-12T17:22:40.977Z,100630.69
2023-03-12T17:25:20.147Z,100638.75
2023-03-12T17:27:47.282Z,100638.06
2023-03-12T17:30:15.011Z,100646.88
2023-03-12T17:32:42.186Z,100639.03
2023-03-12T17:35:23.270Z,100642.56
2023-03-12T17:37:51.004Z,100642.69
2023-03-12T17:40:18.152Z,100643.59
2023-03-12T17:42:45.168Z,100656.81
2023-03-12T17:45:12.424Z,100656.03
2023-03-12T17:47:39.498Z,100661.38
2023-03-12T17:50:08.411Z,100657.91
2023-03-12T17:52:35.506Z,100648.38
2023-03-12T17:55:03.375Z,100646.72
2023-03-12T17:57:30.477Z,100650.25
2023-03-12T17:59:57.485Z,100660.84
2023-03-12T18:02:25.367Z,100665.22
2023-03-12T18:04:52.660Z,100661.75
2023-03-12T18:07:19.648Z,100666.19
2023-03-12T18:09:46.798Z,100666.06
2023-03-12T18:12:13.899Z,100670.38
2023-03-12T18:14:40.901Z,100668.53
2023-03-12T18:17:07.909Z,100675.41
2023-03-12T18:19:35.614Z,100668.31
2023-03-12T18:22:02.801Z,100671.81
2023-03-12T18:24:30.051Z,100670.09
2023-03-12T18:26:59.209Z,100674.41
2023-03-12T18:29:26.626Z,100670.84
2023-03-12T18:31:53.776Z,100672.63
2023-03-12T18:34:20.934Z,100670.84
2023-03-12T18:36:47.878Z,100662.03
2023-03-12T18:39:15.095Z,100667.19
2023-03-12T18:41:42.275Z,100659.28
2023-03-12T18:44:09.578Z,100663.72
2023-03-12T18:46:36.627Z,100663.78
2023-03-12T18:49:07.690Z,100663.78
2023-03-12T18:51:35.684Z,100658.44
2023-03-12T18:54:02.694Z,100654.03
2023-03-12T18:56:30.066Z,100654.03
2023-03-12T18:58:58.062Z,100647.91
2023-03-12T19:01:26.144Z,100652.34
2023-03-12T19:03:53.224Z,100650.53
2023-03-12T19:06:20.200Z,100662.91
2023-03-12T19:08:47.186Z,100653.22
2023-03-12T19:11:16.623Z,100647.97
2023-03-12T19:13:43.934Z,100649.78
2023-03-12T19:16:16.155Z,100650.63
2023-03-12T19:18:43.148Z,100640.09
2023-03-12T19:21:10.152Z,100643.63
2023-03-12T19:23:37.108Z,100629.59
2023-03-12T19:26:05.078Z,100633.06
2023-03-12T19:28:32.315Z,100628.69
2023-03-12T19:31:06.286Z,100631.34
2023-03-12T19:33:33.353Z,100628.69
2023-03-12T19:36:00.534Z,100627.81
2023-03-12T19:38:27.547Z,100635.72
2023-03-12T19:40:57.214Z,100621.72
2023-03-12T19:43:25.453Z,100623.47
2023-03-12T19:45:54.799Z,100624.41
2023-03-12T19:48:23.243Z,100626.97
2023-03-12T19:50:51.467Z,100618.25
2023-03-12T19:53:19.639Z,100612.91
2023-03-12T19:55:48.811Z,100620.88
2023-03-12T19:58:16.751Z,100620.81
2023-03-12T20:00:44.163Z,100629.59
2023-03-12T20:03:11.245Z,100621.72
2023-03-12T20:05:38.659Z,100605.97
2023-03-12T20:08:08.905Z,100601.63
2023-03-12T20:10:35.883Z,100605.16
2023-03-12T20:13:02.893Z,100599.16
2023-03-12T20:15:29.927Z,100591.25
2023-03-12T20:17:58.341Z,100585.22
2023-03-12T20:20:26.180Z,100591.47
2023-03-12T20:22:53.209Z,100579.34
2023-03-12T20:25:20.213Z,100572.50
2023-03-12T20:27:47.261Z,100574.47
2023-03-12T20:30:14.731Z,100559.88
2023-03-12T20:32:42.757Z,100560.16
2023-03-12T20:35:10.451Z,100564.75
2023-03-12T20:37:37.430Z,100564.88
2023-03-12T20:40:05.678Z,100557.13
2023-03-12T20:42:32.865Z,100551.13
2023-03-12T20:45:00.096Z,100551.34
2023-03-12T20:47:27.102Z,100548.00
2023-03-12T20:49:54.097Z,100534.09
2023-03-12T20:52:21.009Z,100536.94
2023-03-12T20:54:48.064Z,100537.91
2023-03-12T20:57:15.111Z,100532.72
2023-03-12T20:59:41.998Z,100532.72
2023-03-12T21:02:14.084Z,100531.88
2023-03-12T21:04:42.883Z,100521.34
2023-03-12T21:07:09.886Z,100519.63
2023-03-12T21:09:37.024Z,100521.47
2023-03-12T21:12:04.330Z,100513.69
2023-03-12T21:14:31.329Z,100513.81
2023-03-12T21:16:58.270Z,100515.69
2023-03-12T21:19:27.021Z,100519.34
2023-03-12T21:21:53.986Z,100504.56
2023-03-12T21:24:20.947Z,100504.69
2023-03-12T21:26:47.922Z,100504.75
2023-03-12T21:29:14.895Z,100498.59
2023-03-12T21:31:41.840Z,100495.94
2023-03-12T21:34:09.654Z,100494.13
2023-03-12T21:36:36.743Z,100494.88
2023-03-12T21:39:03.735Z,100491.31
2023-03-12T21:41:30.744Z,100478.13
2023-03-12T21:44:02.475Z,100487.66
2023-03-12T21:46:30.527Z,100477.09
2023-03-12T21:48:58.711Z,100476.13
2023-03-12T21:51:27.045Z,100469.00
2023-03-12T21:53:56.641Z,100457.63
2023-03-12T21:56:27.970Z,100461.91
2023-03-12T21:58:57.038Z,100452.28
2023-03-12T22:01:24.744Z,100445.19
2023-03-12T22:03:52.273Z,100446.88
2023-03-12T22:06:20.268Z,100434.56
2023-03-12T22:08:52.186Z,100435.38
2023-03-12T22:11:19.411Z,100435.34
2023-03-12T22:13:46.402Z,100429.16
2023-03-12T22:16:15.230Z,100411.63
2023-03-12T22:18:45.144Z,100403.63
2023-03-12T22:21:23.984Z,100395.63
2023-03-12T22:23:53.645Z,100394.72
2023-03-12T22:26:23.743Z,100385.03
2023-03-12T22:28:57.263Z,100381.50
2023-03-12T22:31:27.893Z,100371.81
2023-03-12T22:33:56.151Z,100365.63
2023-03-12T22:36:23.839Z,100369.09
2023-03-12T22:38:51.427Z,100351.41
2023-03-12T22:41:29.245Z,100354.81
2023-03-12T22:44:02.070Z,100351.19
2023-03-12T22:46:29.682Z,100344.06
2023-03-12T22:49:01.116Z,100344.03
2023-03-12T22:51:30.599Z,100335.97
2023-03-12T22:53:57.764Z,100333.28
2023-03-12T22:56:25.220Z,100329.66
2023-03-12T22:58:52.458Z,100324.38
2023-03-12T23:01:22.281Z,100317.28
2023-03-12T23:03:51.272Z,100320.59
2023-03-12T23:06:26.301Z,100317.97
2023-03-12T23:08:57.144Z,100320.44
2023-03-12T23:11:28.015Z,100312.47
2023-03-12T23:13:55.434Z,100307.19
2023-03-12T23:16:26.277Z,100310.72
2023-03-12T23:18:53.896Z,100305.53
2023-03-12T23:21:23.651Z,100298.47
2023-03-12T23:23:51.335Z,100299.38
2023-03-12T23:26:26.554Z,100296.75
2023-03-12T23:28:56.274Z,100287.25
2023-03-12T23:31:23.832Z,100281.22
2023-03-12T23:33:51.032Z,100280.44
2023-03-12T23:36:21.661Z,100272.66
2023-03-12T23:38:50.122Z,100273.63
2023-03-12T23:41:27.015Z,100256.16
2023-03-12T23:43:53.975Z,100256.28
2023-03-12T23:46:21.048Z,100244.94
2023-03-12T23:48:49.189Z,100232.69
2023-03-12T23:51:24.885Z,100223.97
2023-03-12T23:53:57.829Z,100211.88
2023-03-12T23:56:29.542Z,100206.66
2023-03-12T23:58:56.486Z,100208.44
